地図

経路データ

SID SEASON NUMBER BASIN SUBBASIN NAME ISO_TIME NATURE LAT LON WMO_WIND WMO_PRES WMO_AGENCY TRACK_TYPE DIST2LAND LANDFALL IFLAG USA_AGENCY USA_ATCF_ID USA_LAT USA_LON USA_RECORD USA_STATUS USA_WIND USA_PRES USA_SSHS USA_R34_NE USA_R34_SE USA_R34_SW USA_R34_NW USA_R50_NE USA_R50_SE USA_R50_SW USA_R50_NW USA_R64_NE USA_R64_SE USA_R64_SW USA_R64_NW USA_POCI USA_ROCI USA_RMW USA_EYE TOKYO_LAT TOKYO_LON TOKYO_GRADE TOKYO_WIND TOKYO_PRES TOKYO_R50_DIR TOKYO_R50_LONG TOKYO_R50_SHORT TOKYO_R30_DIR TOKYO_R30_LONG TOKYO_R30_SHORT TOKYO_LAND CMA_LAT CMA_LON CMA_CAT CMA_WIND CMA_PRES HKO_LAT HKO_LON HKO_CAT HKO_WIND HKO_PRES NEWDELHI_LAT NEWDELHI_LON NEWDELHI_GRADE NEWDELHI_WIND NEWDELHI_PRES NEWDELHI_CI NEWDELHI_DP NEWDELHI_POCI REUNION_LAT REUNION_LON REUNION_TYPE REUNION_WIND REUNION_PRES REUNION_TNUM REUNION_CI REUNION_RMW REUNION_R34_NE REUNION_R34_SE REUNION_R34_SW REUNION_R34_NW REUNION_R50_NE REUNION_R50_SE REUNION_R50_SW REUNION_R50_NW REUNION_R64_NE REUNION_R64_SE REUNION_R64_SW REUNION_R64_NW BOM_LAT BOM_LON BOM_TYPE BOM_WIND BOM_PRES BOM_TNUM BOM_CI BOM_RMW BOM_R34_NE BOM_R34_SE BOM_R34_SW BOM_R34_NW BOM_R50_NE BOM_R50_SE BOM_R50_SW BOM_R50_NW BOM_R64_NE BOM_R64_SE BOM_R64_SW BOM_R64_NW BOM_ROCI BOM_POCI BOM_EYE BOM_POS_METHOD BOM_PRES_METHOD NADI_LAT NADI_LON NADI_CAT NADI_WIND NADI_PRES WELLINGTON_LAT WELLINGTON_LON WELLINGTON_WIND WELLINGTON_PRES DS824_LAT DS824_LON DS824_STAGE DS824_WIND DS824_PRES TD9636_LAT TD9636_LON TD9636_STAGE TD9636_WIND TD9636_PRES TD9635_LAT TD9635_LON TD9635_WIND TD9635_PRES TD9635_ROCI NEUMANN_LAT NEUMANN_LON NEUMANN_CLASS NEUMANN_WIND NEUMANN_PRES MLC_LAT MLC_LON MLC_CLASS MLC_WIND MLC_PRES USA_GUST BOM_GUST BOM_GUST_PER REUNION_GUST REUNION_GUST_PER USA_SEAHGT USA_SEARAD_NE USA_SEARAD_SE USA_SEARAD_SW USA_SEARAD_NW STORM_SPEED STORM_DIR
1959325S06088 1960 104 SI MM NOT_NAMED 1959-11-20 18:00:00 TS -5.90000 88.3000 main 1259 1259 O________OO___ jtwc_sh SH021960 -5.90000 88.3000 -1 -5.90000 88.3000 TC -5.90000 88.3000 7 9 264
1959325S06088 1960 104 SI MM NOT_NAMED 1959-11-20 21:00:00 TS -5.95132 87.8428 main 1311 1311 P________PP___ SH021960 -5.94010 87.8250 -1 -5.94010 87.8250 TC -5.97376 87.8782 7 9 262
1959325S06088 1960 104 SI MM NOT_NAMED 1959-11-21 00:00:00 TS -6.01596 87.4250 main 1341 1341 O________OP___ jtwc_sh SH021960 -6.00000 87.4000 -1 -6.00000 87.4000 TC -6.04787 87.4751 7 8 259
1959325S06088 1960 104 SI MM NOT_NAMED 1959-11-21 03:00:00 TS -6.10265 87.0782 main 1373 1373 P________PP___ SH021960 -6.09246 87.0625 -1 -6.09246 87.0625 TC -6.12303 87.1094 7 6 254
1959325S06088 1960 104 SI MM NOT_NAMED 1959-11-21 06:00:00 TS -6.20000 86.8000 main 1404 1404 O________OO___ jtwc_sh SH021960 -6.20000 86.8000 -1 -6.20000 86.8000 TC 25 -6.20000 86.8000 7 5 249
1959325S06088 1960 104 SI MM NOT_NAMED 1959-11-21 09:00:00 TS -6.29348 86.5714 main 1428 1428 P________PP___ SH021960 -6.29998 86.5775 -1 -6.29998 86.5775 TC 25 -6.28048 86.5593 7 4 245
1959325S06088 1960 104 SI MM NOT_NAMED 1959-11-21 12:00:00 TS -6.38994 86.3916 main 1452 1452 O________OP___ jtwc_sh SH021960 -6.40000 86.4000 -1 -6.40000 86.4000 TC 25 -6.36983 86.3749 7 4 240
1959325S06088 1960 104 SI MM NOT_NAMED 1959-11-21 15:00:00 TS -6.48642 86.2377 main 1475 1475 P________PP___ SH021960 -6.49249 86.2425 -1 -6.49249 86.2425 TC 25 -6.47427 86.2281 7 4 234
1959325S06088 1960 104 SI MM NOT_NAMED 1959-11-21 18:00:00 TS -6.60000 86.1000 main 1491 1491 O________OO___ jtwc_sh SH021960 -6.60000 86.1000 -1 -6.60000 86.1000 TC 25 -6.60000 86.1000 7 4 231
1959325S06088 1960 104 SI MM NOT_NAMED 1959-11-21 21:00:00 TS -6.72084 85.9431 main 1515 1515 P________PP___ SH021960 -6.73500 85.9425 -1 -6.73500 85.9425 TC 25 -6.69253 85.9443 7 4 227
1959325S06088 1960 104 SI MM NOT_NAMED 1959-11-22 00:00:00 TS -6.87169 85.8017 main 1538 1538 O________OP___ jtwc_sh SH021960 -6.90000 85.8000 -1 -6.90000 85.8000 TC 25 -6.81506 85.8050 7 4 219
1959325S06088 1960 104 SI MM NOT_NAMED 1959-11-22 03:00:00 TS -7.03335 85.6860 main 1552 1552 P________PP___ SH021960 -7.04750 85.6850 -1 -7.04750 85.6850 TC 25 -7.00505 85.6881 7 5 205
1959325S06088 1960 104 SI MM NOT_NAMED 1959-11-22 06:00:00 TS -7.30000 85.6000 main 1579 1579 O________OO___ jtwc_sh SH021960 -7.30000 85.6000 -1 -7.30000 85.6000 TC 25 -7.30000 85.6000 7 7 191
1959325S06088 1960 104 SI MM NOT_NAMED 1959-11-22 09:00:00 TS -7.74886 85.5441 main 1618 1618 P________PP___ SH021960 -7.74001 85.5350 -1 -7.74001 85.5350 TC 25 -7.76654 85.5623 7 10 185
1959325S06088 1960 104 SI MM NOT_NAMED 1959-11-22 12:00:00 TS -8.31083 85.5165 main 1655 1655 O________OP___ jtwc_sh SH021960 -8.30000 85.5000 -1 -8.30000 85.5000 TC 25 -8.33250 85.5497 7 12 181
1959325S06088 1960 104 SI MM NOT_NAMED 1959-11-22 15:00:00 TS -8.91573 85.5173 main 1688 1688 P________PP___ SH021960 -8.90749 85.5074 -1 -8.90749 85.5074 TC 25 -8.93221 85.5372 7 12 0
1959325S06088 1960 104 SI MM NOT_NAMED 1959-11-22 18:00:00 TS -9.50000 85.5000 main 1721 1721 O________OO___ jtwc_sh SH021960 -9.50000 85.5000 -1 -9.50000 85.5000 TC 25 -9.50000 85.5000 7 11 185
1959325S06088 1960 104 SI MM NOT_NAMED 1959-11-22 21:00:00 TS -9.98350 85.4203 main 1759 1759 P________PP___ SH021960 -9.98748 85.4225 -1 -9.98748 85.4225 TC 25 -9.97554 85.4160 7 9 192
1959325S06088 1960 104 SI MM NOT_NAMED 1959-11-23 00:00:00 TS -10.4016 85.3009 main 1792 1792 O________OP___ jtwc_sh SH021960 -10.4000 85.3000 -1 -10.4000 85.3000 TC 25 -10.4049 85.3026 7 8 198
1959325S06088 1960 104 SI MM NOT_NAMED 1959-11-23 03:00:00 TS -10.7806 85.1593 main 1825 1825 P________PP___ SH021960 -10.7800 85.1575 -1 -10.7800 85.1575 TC 25 -10.7818 85.1629 7 8 203
1959325S06088 1960 104 SI MM NOT_NAMED 1959-11-23 06:00:00 TS -11.1000 85.0000 main 1862 1862 O________OO___ jtwc_sh SH021960 -11.1000 85.0000 -1 -11.1000 85.0000 TC 25 -11.1000 85.0000 7 7 207
1959325S06088 1960 104 SI MM NOT_NAMED 1959-11-23 09:00:00 TS -11.3779 84.8559 main 1889 1889 P________PP___ SH021960 -11.3800 84.8649 -1 -11.3800 84.8649 TC 25 -11.3737 84.8377 7 6 212
1959325S06088 1960 104 SI MM NOT_NAMED 1959-11-23 12:00:00 TS -11.5966 84.6841 main 1920 1920 O________OP___ jtwc_sh SH021960 -11.6000 84.7000 -1 -11.6000 84.7000 TC 25 -11.5898 84.6524 7 5 225
1959325S06088 1960 104 SI MM NOT_NAMED 1959-11-23 15:00:00 TS -11.7637 84.4619 main 1951 1951 P________PP___ SH021960 -11.7650 84.4725 -1 -11.7650 84.4725 TC 25 -11.7611 84.4408 7 6 237
1959325S06088 1960 104 SI MM NOT_NAMED 1959-11-23 18:00:00 TS -11.9000 84.2000 main 1984 1984 O________OO___ jtwc_sh SH021960 -11.9000 84.2000 -1 -11.9000 84.2000 TC 25 -11.9000 84.2000 7 6 241
1959325S06088 1960 104 SI MM NOT_NAMED 1959-11-23 21:00:00 TS -12.0583 83.9160 main 2023 2023 P________PP___ SH021960 -12.0650 83.9075 -1 -12.0650 83.9075 TC 25 -12.0450 83.9328 7 6 243
1959325S06088 1960 104 SI MM NOT_NAMED 1959-11-24 00:00:00 TS -12.1867 83.6125 main 2054 2051 O________OP___ jtwc_sh SH021960 -12.2000 83.6000 -1 -12.2000 83.6000 TC 25 -12.1600 83.6375 7 6 251
1959325S06088 1960 104 SI MM NOT_NAMED 1959-11-24 03:00:00 TS -12.2633 83.3128 main 2060 2056 P________PP___ SH021960 -12.2724 83.3075 -1 -12.2724 83.3075 TC 25 -12.2450 83.3235 7 6 259
1959325S06088 1960 104 SI MM NOT_NAMED 1959-11-24 06:00:00 TS -12.3000 83.0000 main 2056 2052 O________OO___ jtwc_sh SH021960 -12.3000 83.0000 -1 -12.3000 83.0000 TC 25 -12.3000 83.0000 7 6 265
1959325S06088 1960 104 SI MM NOT_NAMED 1959-11-24 09:00:00 TS -12.3146 82.6593 main 2052 2047 P________PP___ SH021960 -12.3075 82.6500 -1 -12.3075 82.6500 TC 25 -12.3287 82.6780 7 7 269
1959325S06088 1960 104 SI MM NOT_NAMED 1959-11-24 12:00:00 TS -12.3100 82.3166 main 2047 2045 O________OP___ jtwc_sh SH021960 -12.3000 82.3000 -1 -12.3000 82.3000 TC 25 -12.3299 82.3498 7 6 271
1959325S06088 1960 104 SI MM NOT_NAMED 1959-11-24 15:00:00 TS -12.3054 82.0023 main 2045 2042 P________PP___ SH021960 -12.2999 81.9925 -1 -12.2999 81.9925 TC 25 -12.3162 82.0217 7 6 271
1959325S06088 1960 104 SI MM NOT_NAMED 1959-11-24 18:00:00 TS -12.3000 81.7000 main 2042 2041 O________OO___ jtwc_sh SH021960 -12.3000 81.7000 -1 -12.3000 81.7000 TC 25 -12.3000 81.7000 7 6 271
1959325S06088 1960 104 SI MM NOT_NAMED 1959-11-24 21:00:00 TS -12.2999 81.4017 main 2041 2039 P________PP___ SH021960 -12.3000 81.4000 -1 -12.3000 81.4000 TC 25 -12.2998 81.4050 7 6 270
1959325S06088 1960 104 SI MM NOT_NAMED 1959-11-25 00:00:00 TS -12.2999 81.1050 main 2039 2039 O________OP___ jtwc_sh SH021960 -12.3000 81.1000 -1 -12.3000 81.1000 TC 25 -12.2997 81.1150 7 6 270
1959325S06088 1960 104 SI MM NOT_NAMED 1959-11-25 03:00:00 TS -12.2999 80.8108 main 2039 2039 P________PP___ SH021960 -12.2999 80.8075 -1 -12.2999 80.8075 TC 25 -12.2997 80.8175 7 6 270
1959325S06088 1960 104 SI MM NOT_NAMED 1959-11-25 06:00:00 TS -12.3000 80.5000 main 2039 2039 O________OO___ jtwc_sh SH021960 -12.3000 80.5000 -1 -12.3000 80.5000 TC 25 -12.3000 80.5000 7 6 270
1959325S06088 1960 104 SI MM NOT_NAMED 1959-11-25 09:00:00 TS -12.2999 80.1602 main 2039 2039 P________PP___ SH021960 -12.3000 80.1650 -1 -12.3000 80.1650 TC 25 -12.2999 80.1506 7 7 270
1959325S06088 1960 104 SI MM NOT_NAMED 1959-11-25 12:00:00 TS -12.3000 79.7933 main 2041 2041 O________OP___ jtwc_sh SH021960 -12.3000 79.8000 -1 -12.3000 79.8000 TC 25 -12.2999 79.7800 7 7 270
1959325S06088 1960 104 SI MM NOT_NAMED 1959-11-25 15:00:00 TS -12.3000 79.4031 main 2043 2043 P________PP___ SH021960 -12.3000 79.4075 -1 -12.3000 79.4075 TC 25 -12.2999 79.3944 7 8 270
1959325S06088 1960 104 SI MM NOT_NAMED 1959-11-25 18:00:00 TS -12.3000 79.0000 main 2046 2046 O________OO___ jtwc_sh SH021960 -12.3000 79.0000 -1 -12.3000 79.0000 TC 25 -12.3000 79.0000 7 8 270
1959325S06088 1960 104 SI MM NOT_NAMED 1959-11-25 21:00:00 TS -12.3000 78.6007 main 2051 2051 P________PP___ SH021960 -12.2999 78.6000 -1 -12.2999 78.6000 TC 25 -12.3002 78.6022 7 8 270
1959325S06088 1960 104 SI MM NOT_NAMED 1959-11-26 00:00:00 TS -12.3001 78.2008 main 2056 2056 O________OP___ jtwc_sh SH021960 -12.3000 78.2000 -1 -12.3000 78.2000 TC 25 -12.3004 78.2025 7 8 270
1959325S06088 1960 104 SI MM NOT_NAMED 1959-11-26 03:00:00 TS -12.3002 77.8005 main 2062 2062 P________PP___ SH021960 -12.3001 77.8000 -1 -12.3001 77.8000 TC 25 -12.3004 77.8016 7 8 270
1959325S06088 1960 104 SI MM NOT_NAMED 1959-11-26 06:00:00 TS -12.3000 77.4000 main 2069 O________OO___ jtwc_sh SH021960 -12.3000 77.4000 -1 -12.3000 77.4000 TC 25 -12.3000 77.4000 7 8 270

IBTrACS Databaseについて

本データベースは、米国NOAAが公開する1842年以降の世界の熱帯低気圧のベストトラックデータアーカイブInternational Best Track Archive for Climate Stewardship (IBTrACS)を、ウェブで閲覧しやすい形式に変換したものです。

最終更新日:2021-11-26